sensor_id;sensor_type;location;lat;lon;timestamp;P1;durP1;ratioP1;P2;durP2;ratioP2
47804;SDS011;33568;45.286;9.900;2022-10-16T00:00:56;86.97;;;67.18;;
47804;SDS011;33568;45.286;9.900;2022-10-16T00:03:23;89.60;;;67.95;;
47804;SDS011;33568;45.286;9.900;2022-10-16T00:05:49;84.53;;;66.15;;
47804;SDS011;33568;45.286;9.900;2022-10-16T00:08:16;93.10;;;68.97;;
47804;SDS011;33568;45.286;9.900;2022-10-16T00:10:42;87.97;;;68.10;;
47804;SDS011;33568;45.286;9.900;2022-10-16T00:13:09;84.40;;;64.03;;
47804;SDS011;33568;45.286;9.900;2022-10-16T00:18:03;93.90;;;66.75;;
47804;SDS011;33568;45.286;9.900;2022-10-16T00:20:30;85.97;;;66.88;;
47804;SDS011;33568;45.286;9.900;2022-10-16T00:23:18;95.10;;;71.72;;
47804;SDS011;33568;45.286;9.900;2022-10-16T00:25:54;92.28;;;68.15;;
47804;SDS011;33568;45.286;9.900;2022-10-16T00:28:24;95.93;;;71.55;;
47804;SDS011;33568;45.286;9.900;2022-10-16T00:30:51;90.97;;;69.00;;
47804;SDS011;33568;45.286;9.900;2022-10-16T00:33:17;87.07;;;66.68;;
47804;SDS011;33568;45.286;9.900;2022-10-16T00:35:43;88.45;;;67.88;;
47804;SDS011;33568;45.286;9.900;2022-10-16T00:38:10;87.57;;;67.43;;
47804;SDS011;33568;45.286;9.900;2022-10-16T00:40:36;90.25;;;68.60;;
47804;SDS011;33568;45.286;9.900;2022-10-16T00:43:09;83.95;;;66.18;;
47804;SDS011;33568;45.286;9.900;2022-10-16T00:45:40;92.55;;;67.82;;
47804;SDS011;33568;45.286;9.900;2022-10-16T00:48:08;95.15;;;70.32;;
47804;SDS011;33568;45.286;9.900;2022-10-16T00:50:39;88.47;;;67.57;;
47804;SDS011;33568;45.286;9.900;2022-10-16T00:53:09;88.25;;;65.13;;
47804;SDS011;33568;45.286;9.900;2022-10-16T00:55:37;86.40;;;66.18;;
47804;SDS011;33568;45.286;9.900;2022-10-16T00:58:03;87.03;;;66.30;;
47804;SDS011;33568;45.286;9.900;2022-10-16T01:00:29;93.85;;;70.65;;
47804;SDS011;33568;45.286;9.900;2022-10-16T01:05:25;92.65;;;69.68;;
47804;SDS011;33568;45.286;9.900;2022-10-16T01:08:17;88.75;;;66.70;;
47804;SDS011;33568;45.286;9.900;2022-10-16T01:10:52;87.07;;;65.53;;
47804;SDS011;33568;45.286;9.900;2022-10-16T01:13:24;89.18;;;65.70;;
47804;SDS011;33568;45.286;9.900;2022-10-16T01:16:05;88.57;;;65.70;;
47804;SDS011;33568;45.286;9.900;2022-10-16T01:21:42;86.57;;;65.32;;
47804;SDS011;33568;45.286;9.900;2022-10-16T01:24:13;86.75;;;65.47;;
47804;SDS011;33568;45.286;9.900;2022-10-16T01:27:09;93.90;;;66.32;;
47804;SDS011;33568;45.286;9.900;2022-10-16T01:29:53;85.07;;;63.97;;
47804;SDS011;33568;45.286;9.900;2022-10-16T01:32:54;84.57;;;65.57;;
47804;SDS011;33568;45.286;9.900;2022-10-16T01:40:21;87.00;;;67.13;;
47804;SDS011;33568;45.286;9.900;2022-10-16T01:43:14;94.65;;;66.88;;
47804;SDS011;33568;45.286;9.900;2022-10-16T01:45:40;88.32;;;66.03;;
47804;SDS011;33568;45.286;9.900;2022-10-16T01:48:09;90.40;;;65.47;;
47804;SDS011;33568;45.286;9.900;2022-10-16T01:50:39;90.53;;;65.15;;
47804;SDS011;33568;45.286;9.900;2022-10-16T01:53:10;85.18;;;66.10;;
47804;SDS011;33568;45.286;9.900;2022-10-16T01:55:41;83.60;;;63.63;;
47804;SDS011;33568;45.286;9.900;2022-10-16T01:58:11;85.85;;;65.43;;
47804;SDS011;33568;45.286;9.900;2022-10-16T02:00:40;84.88;;;65.28;;
47804;SDS011;33568;45.286;9.900;2022-10-16T02:03:10;90.00;;;65.50;;
47804;SDS011;33568;45.286;9.900;2022-10-16T02:08:04;84.45;;;62.65;;
47804;SDS011;33568;45.286;9.900;2022-10-16T02:13:03;89.85;;;63.20;;
47804;SDS011;33568;45.286;9.900;2022-10-16T02:15:41;83.25;;;63.83;;
47804;SDS011;33568;45.286;9.900;2022-10-16T02:20:37;89.15;;;63.75;;
47804;SDS011;33568;45.286;9.900;2022-10-16T02:23:19;90.78;;;66.82;;
47804;SDS011;33568;45.286;9.900;2022-10-16T02:25:55;85.07;;;64.57;;
47804;SDS011;33568;45.286;9.900;2022-10-16T02:28:25;91.32;;;65.65;;
47804;SDS011;33568;45.286;9.900;2022-10-16T02:30:59;87.40;;;63.42;;
47804;SDS011;33568;45.286;9.900;2022-10-16T02:33:30;86.00;;;66.00;;
47804;SDS011;33568;45.286;9.900;2022-10-16T02:35:59;86.80;;;65.22;;
47804;SDS011;33568;45.286;9.900;2022-10-16T02:38:25;85.35;;;63.85;;
47804;SDS011;33568;45.286;9.900;2022-10-16T02:40:53;88.40;;;63.75;;
47804;SDS011;33568;45.286;9.900;2022-10-16T02:43:20;94.95;;;67.75;;
47804;SDS011;33568;45.286;9.900;2022-10-16T02:48:13;86.18;;;65.82;;
47804;SDS011;33568;45.286;9.900;2022-10-16T02:50:40;85.85;;;64.63;;
47804;SDS011;33568;45.286;9.900;2022-10-16T02:55:32;96.03;;;65.55;;
47804;SDS011;33568;45.286;9.900;2022-10-16T02:57:59;83.65;;;64.28;;
47804;SDS011;33568;45.286;9.900;2022-10-16T03:02:52;85.72;;;65.13;;
47804;SDS011;33568;45.286;9.900;2022-10-16T03:05:18;85.40;;;65.22;;
47804;SDS011;33568;45.286;9.900;2022-10-16T03:07:44;82.28;;;63.03;;
47804;SDS011;33568;45.286;9.900;2022-10-16T03:12:37;85.95;;;64.90;;
47804;SDS011;33568;45.286;9.900;2022-10-16T03:15:04;80.82;;;64.93;;
47804;SDS011;33568;45.286;9.900;2022-10-16T03:17:31;91.68;;;69.72;;
47804;SDS011;33568;45.286;9.900;2022-10-16T03:19:58;83.47;;;65.35;;
47804;SDS011;33568;45.286;9.900;2022-10-16T03:24:50;91.07;;;62.60;;
47804;SDS011;33568;45.286;9.900;2022-10-16T03:27:17;86.68;;;64.53;;
47804;SDS011;33568;45.286;9.900;2022-10-16T03:32:09;86.53;;;64.97;;
47804;SDS011;33568;45.286;9.900;2022-10-16T03:37:02;84.50;;;63.50;;
47804;SDS011;33568;45.286;9.900;2022-10-16T03:39:29;88.15;;;64.68;;
47804;SDS011;33568;45.286;9.900;2022-10-16T03:41:55;96.13;;;69.43;;
47804;SDS011;33568;45.286;9.900;2022-10-16T03:46:48;87.20;;;65.47;;
47804;SDS011;33568;45.286;9.900;2022-10-16T03:49:14;88.30;;;65.50;;
47804;SDS011;33568;45.286;9.900;2022-10-16T03:51:40;87.20;;;66.60;;
47804;SDS011;33568;45.286;9.900;2022-10-16T03:56:33;88.13;;;67.53;;
47804;SDS011;33568;45.286;9.900;2022-10-16T04:01:25;89.78;;;64.40;;
47804;SDS011;33568;45.286;9.900;2022-10-16T04:06:18;87.47;;;62.38;;
47804;SDS011;33568;45.286;9.900;2022-10-16T04:11:11;90.32;;;65.40;;
47804;SDS011;33568;45.286;9.900;2022-10-16T04:13:37;91.70;;;64.93;;
47804;SDS011;33568;45.286;9.900;2022-10-16T04:16:04;88.70;;;65.20;;
47804;SDS011;33568;45.286;9.900;2022-10-16T04:18:30;87.13;;;65.97;;
47804;SDS011;33568;45.286;9.900;2022-10-16T04:20:57;91.15;;;68.55;;
47804;SDS011;33568;45.286;9.900;2022-10-16T04:23:31;84.88;;;64.35;;
47804;SDS011;33568;45.286;9.900;2022-10-16T04:25:58;91.07;;;65.38;;
47804;SDS011;33568;45.286;9.900;2022-10-16T04:28:24;87.13;;;66.43;;
47804;SDS011;33568;45.286;9.900;2022-10-16T04:33:17;85.90;;;64.18;;
47804;SDS011;33568;45.286;9.900;2022-10-16T04:38:10;90.40;;;65.00;;
47804;SDS011;33568;45.286;9.900;2022-10-16T04:43:03;87.35;;;65.88;;
47804;SDS011;33568;45.286;9.900;2022-10-16T04:45:29;87.10;;;63.10;;
47804;SDS011;33568;45.286;9.900;2022-10-16T04:50:23;88.63;;;64.85;;
47804;SDS011;33568;45.286;9.900;2022-10-16T04:53:04;86.22;;;64.20;;
47804;SDS011;33568;45.286;9.900;2022-10-16T04:55:31;86.95;;;64.90;;
47804;SDS011;33568;45.286;9.900;2022-10-16T04:57:58;87.55;;;65.03;;
47804;SDS011;33568;45.286;9.900;2022-10-16T05:00:24;88.47;;;64.28;;
47804;SDS011;33568;45.286;9.900;2022-10-16T05:05:17;89.38;;;65.00;;
47804;SDS011;33568;45.286;9.900;2022-10-16T05:07:45;86.07;;;65.25;;
47804;SDS011;33568;45.286;9.900;2022-10-16T05:10:17;83.95;;;64.68;;
47804;SDS011;33568;45.286;9.900;2022-10-16T05:12:44;89.03;;;63.92;;
47804;SDS011;33568;45.286;9.900;2022-10-16T05:15:11;89.88;;;64.95;;
47804;SDS011;33568;45.286;9.900;2022-10-16T05:17:38;91.20;;;66.63;;
47804;SDS011;33568;45.286;9.900;2022-10-16T05:22:31;84.18;;;63.70;;
47804;SDS011;33568;45.286;9.900;2022-10-16T05:27:23;87.90;;;65.57;;
47804;SDS011;33568;45.286;9.900;2022-10-16T05:29:50;91.00;;;65.40;;
47804;SDS011;33568;45.286;9.900;2022-10-16T05:34:43;82.87;;;63.63;;
47804;SDS011;33568;45.286;9.900;2022-10-16T05:37:10;92.07;;;68.45;;
47804;SDS011;33568;45.286;9.900;2022-10-16T05:39:37;83.60;;;63.72;;
47804;SDS011;33568;45.286;9.900;2022-10-16T05:42:04;88.07;;;64.47;;
47804;SDS011;33568;45.286;9.900;2022-10-16T05:44:31;91.50;;;68.45;;
47804;SDS011;33568;45.286;9.900;2022-10-16T05:49:23;90.35;;;65.80;;
47804;SDS011;33568;45.286;9.900;2022-10-16T05:51:50;88.07;;;65.15;;
47804;SDS011;33568;45.286;9.900;2022-10-16T05:54:16;87.03;;;64.45;;
47804;SDS011;33568;45.286;9.900;2022-10-16T05:56:43;87.35;;;67.63;;
47804;SDS011;33568;45.286;9.900;2022-10-16T06:01:35;86.97;;;65.30;;
47804;SDS011;33568;45.286;9.900;2022-10-16T06:04:02;88.20;;;66.97;;
47804;SDS011;33568;45.286;9.900;2022-10-16T06:06:29;87.43;;;64.93;;
47804;SDS011;33568;45.286;9.900;2022-10-16T06:08:56;93.43;;;66.10;;
47804;SDS011;33568;45.286;9.900;2022-10-16T06:11:25;85.00;;;63.22;;
47804;SDS011;33568;45.286;9.900;2022-10-16T06:13:54;83.22;;;63.75;;
47804;SDS011;33568;45.286;9.900;2022-10-16T06:16:22;87.28;;;63.42;;
47804;SDS011;33568;45.286;9.900;2022-10-16T06:18:50;88.15;;;64.28;;
47804;SDS011;33568;45.286;9.900;2022-10-16T06:21:23;81.57;;;61.95;;
47804;SDS011;33568;45.286;9.900;2022-10-16T06:23:50;79.70;;;61.38;;
47804;SDS011;33568;45.286;9.900;2022-10-16T06:26:19;78.38;;;60.35;;
47804;SDS011;33568;45.286;9.900;2022-10-16T06:28:47;83.72;;;65.07;;
47804;SDS011;33568;45.286;9.900;2022-10-16T06:31:14;90.15;;;65.13;;
47804;SDS011;33568;45.286;9.900;2022-10-16T06:33:42;88.38;;;64.55;;
47804;SDS011;33568;45.286;9.900;2022-10-16T06:36:09;85.32;;;62.60;;
47804;SDS011;33568;45.286;9.900;2022-10-16T06:38:40;86.63;;;62.55;;
47804;SDS011;33568;45.286;9.900;2022-10-16T06:41:09;96.07;;;68.93;;
47804;SDS011;33568;45.286;9.900;2022-10-16T06:43:40;86.50;;;62.28;;
47804;SDS011;33568;45.286;9.900;2022-10-16T06:46:07;83.32;;;61.22;;
47804;SDS011;33568;45.286;9.900;2022-10-16T06:48:35;94.65;;;69.05;;
47804;SDS011;33568;45.286;9.900;2022-10-16T06:51:03;84.05;;;62.70;;
47804;SDS011;33568;45.286;9.900;2022-10-16T06:53:31;83.28;;;62.60;;
47804;SDS011;33568;45.286;9.900;2022-10-16T06:56:09;80.90;;;60.67;;
47804;SDS011;33568;45.286;9.900;2022-10-16T06:58:36;84.13;;;64.97;;
47804;SDS011;33568;45.286;9.900;2022-10-16T07:01:04;86.35;;;63.47;;
47804;SDS011;33568;45.286;9.900;2022-10-16T07:03:31;105.47;;;75.10;;
47804;SDS011;33568;45.286;9.900;2022-10-16T07:06:01;97.47;;;72.20;;
47804;SDS011;33568;45.286;9.900;2022-10-16T07:08:32;94.35;;;70.32;;
47804;SDS011;33568;45.286;9.900;2022-10-16T07:11:01;97.68;;;70.72;;
47804;SDS011;33568;45.286;9.900;2022-10-16T07:13:32;118.10;;;81.90;;
47804;SDS011;33568;45.286;9.900;2022-10-16T07:16:13;106.32;;;74.55;;
47804;SDS011;33568;45.286;9.900;2022-10-16T07:18:41;103.95;;;75.82;;
47804;SDS011;33568;45.286;9.900;2022-10-16T07:21:20;107.78;;;75.60;;
47804;SDS011;33568;45.286;9.900;2022-10-16T07:23:51;105.07;;;76.95;;
47804;SDS011;33568;45.286;9.900;2022-10-16T07:26:25;102.45;;;74.03;;
47804;SDS011;33568;45.286;9.900;2022-10-16T07:28:53;119.22;;;80.32;;
47804;SDS011;33568;45.286;9.900;2022-10-16T07:31:20;104.82;;;75.30;;
47804;SDS011;33568;45.286;9.900;2022-10-16T07:33:47;108.25;;;76.03;;
47804;SDS011;33568;45.286;9.900;2022-10-16T07:36:18;109.78;;;76.32;;
47804;SDS011;33568;45.286;9.900;2022-10-16T07:38:45;100.97;;;73.10;;
47804;SDS011;33568;45.286;9.900;2022-10-16T07:41:17;117.72;;;81.07;;
47804;SDS011;33568;45.286;9.900;2022-10-16T07:43:45;103.60;;;72.57;;
47804;SDS011;33568;45.286;9.900;2022-10-16T07:46:13;109.47;;;74.63;;
47804;SDS011;33568;45.286;9.900;2022-10-16T07:48:40;108.32;;;77.32;;
47804;SDS011;33568;45.286;9.900;2022-10-16T07:51:06;108.35;;;73.18;;
47804;SDS011;33568;45.286;9.900;2022-10-16T07:53:33;95.82;;;73.75;;
47804;SDS011;33568;45.286;9.900;2022-10-16T07:56:00;101.25;;;72.00;;
47804;SDS011;33568;45.286;9.900;2022-10-16T07:58:28;111.60;;;75.22;;
47804;SDS011;33568;45.286;9.900;2022-10-16T08:00:55;97.90;;;70.88;;
47804;SDS011;33568;45.286;9.900;2022-10-16T08:03:25;99.32;;;73.13;;
47804;SDS011;33568;45.286;9.900;2022-10-16T08:05:51;98.05;;;70.50;;
47804;SDS011;33568;45.286;9.900;2022-10-16T08:08:18;96.35;;;70.30;;
47804;SDS011;33568;45.286;9.900;2022-10-16T08:10:45;95.63;;;68.70;;
47804;SDS011;33568;45.286;9.900;2022-10-16T08:13:11;93.05;;;67.00;;
47804;SDS011;33568;45.286;9.900;2022-10-16T08:15:41;97.72;;;68.43;;
47804;SDS011;33568;45.286;9.900;2022-10-16T08:18:08;92.43;;;66.00;;
47804;SDS011;33568;45.286;9.900;2022-10-16T08:20:35;88.85;;;63.08;;
47804;SDS011;33568;45.286;9.900;2022-10-16T08:23:02;90.00;;;64.18;;
47804;SDS011;33568;45.286;9.900;2022-10-16T08:25:29;94.82;;;64.35;;
47804;SDS011;33568;45.286;9.900;2022-10-16T08:27:55;87.25;;;63.55;;
47804;SDS011;33568;45.286;9.900;2022-10-16T08:30:22;87.35;;;60.45;;
47804;SDS011;33568;45.286;9.900;2022-10-16T08:32:50;83.88;;;60.70;;
47804;SDS011;33568;45.286;9.900;2022-10-16T08:35:16;77.90;;;58.42;;
47804;SDS011;33568;45.286;9.900;2022-10-16T08:37:43;77.07;;;59.45;;
47804;SDS011;33568;45.286;9.900;2022-10-16T08:48:23;92.60;;;64.75;;
47804;SDS011;33568;45.286;9.900;2022-10-16T08:51:00;82.72;;;60.88;;
47804;SDS011;33568;45.286;9.900;2022-10-16T08:53:30;81.75;;;58.90;;
47804;SDS011;33568;45.286;9.900;2022-10-16T08:56:02;63.50;;;50.25;;
47804;SDS011;33568;45.286;9.900;2022-10-16T08:58:30;86.30;;;59.20;;
47804;SDS011;33568;45.286;9.900;2022-10-16T09:00:59;86.75;;;59.38;;
47804;SDS011;33568;45.286;9.900;2022-10-16T09:08:41;76.22;;;60.47;;
47804;SDS011;33568;45.286;9.900;2022-10-16T09:12:03;78.93;;;56.80;;
47804;SDS011;33568;45.286;9.900;2022-10-16T09:19:39;73.75;;;56.13;;
47804;SDS011;33568;45.286;9.900;2022-10-16T09:22:12;79.88;;;59.13;;
47804;SDS011;33568;45.286;9.900;2022-10-16T09:24:42;87.78;;;57.13;;
47804;SDS011;33568;45.286;9.900;2022-10-16T09:27:12;71.43;;;55.85;;
47804;SDS011;33568;45.286;9.900;2022-10-16T09:29:40;69.22;;;52.40;;
47804;SDS011;33568;45.286;9.900;2022-10-16T09:32:09;68.20;;;54.17;;
47804;SDS011;33568;45.286;9.900;2022-10-16T09:34:39;77.38;;;57.58;;
47804;SDS011;33568;45.286;9.900;2022-10-16T09:37:14;75.60;;;56.67;;
47804;SDS011;33568;45.286;9.900;2022-10-16T09:39:51;75.95;;;55.40;;
47804;SDS011;33568;45.286;9.900;2022-10-16T09:42:31;69.75;;;54.67;;
47804;SDS011;33568;45.286;9.900;2022-10-16T09:45:01;76.80;;;55.25;;
47804;SDS011;33568;45.286;9.900;2022-10-16T09:47:29;75.43;;;52.38;;
47804;SDS011;33568;45.286;9.900;2022-10-16T09:52:32;67.00;;;54.03;;
47804;SDS011;33568;45.286;9.900;2022-10-16T09:54:59;64.88;;;53.20;;
47804;SDS011;33568;45.286;9.900;2022-10-16T09:57:52;65.63;;;51.83;;
47804;SDS011;33568;45.286;9.900;2022-10-16T10:00:19;70.32;;;53.97;;
47804;SDS011;33568;45.286;9.900;2022-10-16T10:02:47;72.97;;;54.88;;
47804;SDS011;33568;45.286;9.900;2022-10-16T10:05:21;66.05;;;52.33;;
47804;SDS011;33568;45.286;9.900;2022-10-16T10:07:55;73.00;;;52.08;;
47804;SDS011;33568;45.286;9.900;2022-10-16T10:10:27;66.65;;;53.17;;
47804;SDS011;33568;45.286;9.900;2022-10-16T10:12:55;61.90;;;49.42;;
47804;SDS011;33568;45.286;9.900;2022-10-16T10:15:23;59.30;;;48.55;;
47804;SDS011;33568;45.286;9.900;2022-10-16T10:17:51;64.32;;;50.30;;
47804;SDS011;33568;45.286;9.900;2022-10-16T10:22:55;59.80;;;49.38;;
47804;SDS011;33568;45.286;9.900;2022-10-16T10:25:24;62.00;;;51.03;;
47804;SDS011;33568;45.286;9.900;2022-10-16T10:30:50;61.80;;;48.72;;
47804;SDS011;33568;45.286;9.900;2022-10-16T10:33:47;61.10;;;46.70;;
47804;SDS011;33568;45.286;9.900;2022-10-16T10:39:18;54.03;;;45.13;;
47804;SDS011;33568;45.286;9.900;2022-10-16T10:42:09;67.05;;;50.00;;
47804;SDS011;33568;45.286;9.900;2022-10-16T10:50:43;60.83;;;45.75;;
47804;SDS011;33568;45.286;9.900;2022-10-16T10:56:05;50.80;;;44.38;;
47804;SDS011;33568;45.286;9.900;2022-10-16T11:01:48;57.15;;;47.65;;
47804;SDS011;33568;45.286;9.900;2022-10-16T11:07:17;59.95;;;47.15;;
47804;SDS011;33568;45.286;9.900;2022-10-16T11:09:56;57.00;;;44.00;;
47804;SDS011;33568;45.286;9.900;2022-10-16T11:12:31;54.75;;;47.92;;
47804;SDS011;33568;45.286;9.900;2022-10-16T11:15:15;58.20;;;45.53;;
47804;SDS011;33568;45.286;9.900;2022-10-16T11:17:52;59.28;;;46.60;;
47804;SDS011;33568;45.286;9.900;2022-10-16T11:20:21;57.95;;;47.88;;
47804;SDS011;33568;45.286;9.900;2022-10-16T11:22:55;51.50;;;40.25;;
47804;SDS011;33568;45.286;9.900;2022-10-16T11:27:55;53.67;;;44.03;;
47804;SDS011;33568;45.286;9.900;2022-10-16T11:30:39;62.70;;;46.17;;
47804;SDS011;33568;45.286;9.900;2022-10-16T11:47:06;57.65;;;45.80;;
47804;SDS011;33568;45.286;9.900;2022-10-16T11:49:44;57.60;;;44.63;;
47804;SDS011;33568;45.286;9.900;2022-10-16T11:52:16;63.10;;;47.05;;
47804;SDS011;33568;45.286;9.900;2022-10-16T11:57:50;47.92;;;41.70;;
47804;SDS011;33568;45.286;9.900;2022-10-16T12:00:22;51.85;;;43.47;;
47804;SDS011;33568;45.286;9.900;2022-10-16T12:02:56;58.33;;;45.58;;
47804;SDS011;33568;45.286;9.900;2022-10-16T12:08:25;51.60;;;40.25;;
47804;SDS011;33568;45.286;9.900;2022-10-16T12:10:53;56.67;;;40.40;;
47804;SDS011;33568;45.286;9.900;2022-10-16T12:13:37;45.72;;;39.70;;
47804;SDS011;33568;45.286;9.900;2022-10-16T12:18:38;51.72;;;42.72;;
47804;SDS011;33568;45.286;9.900;2022-10-16T12:21:10;45.70;;;36.30;;
47804;SDS011;33568;45.286;9.900;2022-10-16T12:23:48;47.88;;;39.00;;
47804;SDS011;33568;45.286;9.900;2022-10-16T12:26:30;49.15;;;38.38;;
47804;SDS011;33568;45.286;9.900;2022-10-16T12:34:23;38.47;;;29.77;;
47804;SDS011;33568;45.286;9.900;2022-10-16T12:36:51;45.80;;;37.25;;
47804;SDS011;33568;45.286;9.900;2022-10-16T12:39:23;53.88;;;42.85;;
47804;SDS011;33568;45.286;9.900;2022-10-16T12:42:01;54.38;;;42.10;;
47804;SDS011;33568;45.286;9.900;2022-10-16T12:44:33;52.38;;;42.55;;
47804;SDS011;33568;45.286;9.900;2022-10-16T12:47:01;55.70;;;42.58;;
47804;SDS011;33568;45.286;9.900;2022-10-16T12:51:56;51.70;;;40.95;;
47804;SDS011;33568;45.286;9.900;2022-10-16T13:00:24;59.50;;;41.03;;
47804;SDS011;33568;45.286;9.900;2022-10-16T13:24:46;48.33;;;37.38;;
47804;SDS011;33568;45.286;9.900;2022-10-16T13:30:25;40.08;;;32.15;;
47804;SDS011;33568;45.286;9.900;2022-10-16T13:33:04;43.33;;;34.08;;
47804;SDS011;33568;45.286;9.900;2022-10-16T13:35:46;46.40;;;33.92;;
47804;SDS011;33568;45.286;9.900;2022-10-16T13:38:23;43.95;;;35.38;;
47804;SDS011;33568;45.286;9.900;2022-10-16T13:40:56;42.90;;;34.67;;
47804;SDS011;33568;45.286;9.900;2022-10-16T13:43:25;42.95;;;30.98;;
47804;SDS011;33568;45.286;9.900;2022-10-16T13:45:59;42.53;;;28.02;;
47804;SDS011;33568;45.286;9.900;2022-10-16T13:48:28;35.90;;;28.33;;
47804;SDS011;33568;45.286;9.900;2022-10-16T13:51:03;36.95;;;30.10;;
47804;SDS011;33568;45.286;9.900;2022-10-16T13:53:43;30.83;;;23.88;;
47804;SDS011;33568;45.286;9.900;2022-10-16T13:56:14;33.28;;;26.50;;
47804;SDS011;33568;45.286;9.900;2022-10-16T13:58:43;46.15;;;27.85;;
47804;SDS011;33568;45.286;9.900;2022-10-16T14:01:17;34.13;;;25.33;;
47804;SDS011;33568;45.286;9.900;2022-10-16T14:03:52;29.20;;;23.10;;
47804;SDS011;33568;45.286;9.900;2022-10-16T14:06:21;31.15;;;25.13;;
47804;SDS011;33568;45.286;9.900;2022-10-16T14:08:51;33.33;;;25.05;;
47804;SDS011;33568;45.286;9.900;2022-10-16T14:11:25;26.65;;;22.80;;
47804;SDS011;33568;45.286;9.900;2022-10-16T14:13:52;28.75;;;23.02;;
47804;SDS011;33568;45.286;9.900;2022-10-16T14:16:21;22.67;;;18.25;;
47804;SDS011;33568;45.286;9.900;2022-10-16T14:19:02;22.23;;;19.90;;
47804;SDS011;33568;45.286;9.900;2022-10-16T14:21:33;26.17;;;19.95;;
47804;SDS011;33568;45.286;9.900;2022-10-16T14:24:10;18.40;;;16.40;;
47804;SDS011;33568;45.286;9.900;2022-10-16T14:26:48;24.75;;;19.60;;
47804;SDS011;33568;45.286;9.900;2022-10-16T14:29:18;30.23;;;18.15;;
47804;SDS011;33568;45.286;9.900;2022-10-16T14:32:01;28.13;;;19.50;;
47804;SDS011;33568;45.286;9.900;2022-10-16T14:34:34;26.92;;;18.55;;
47804;SDS011;33568;45.286;9.900;2022-10-16T14:37:09;20.45;;;15.52;;
47804;SDS011;33568;45.286;9.900;2022-10-16T14:39:40;24.58;;;16.45;;
47804;SDS011;33568;45.286;9.900;2022-10-16T14:42:16;18.00;;;14.35;;
47804;SDS011;33568;45.286;9.900;2022-10-16T14:44:45;24.70;;;18.58;;
47804;SDS011;33568;45.286;9.900;2022-10-16T14:47:13;27.80;;;18.70;;
47804;SDS011;33568;45.286;9.900;2022-10-16T14:49:42;22.42;;;19.23;;
47804;SDS011;33568;45.286;9.900;2022-10-16T14:52:12;22.45;;;17.58;;
47804;SDS011;33568;45.286;9.900;2022-10-16T14:54:39;26.25;;;19.13;;
47804;SDS011;33568;45.286;9.900;2022-10-16T14:57:05;27.95;;;18.25;;
47804;SDS011;33568;45.286;9.900;2022-10-16T14:59:42;25.98;;;17.48;;
47804;SDS011;33568;45.286;9.900;2022-10-16T15:02:18;25.05;;;18.35;;
47804;SDS011;33568;45.286;9.900;2022-10-16T15:04:48;22.00;;;16.73;;
47804;SDS011;33568;45.286;9.900;2022-10-16T15:07:15;26.15;;;19.25;;
47804;SDS011;33568;45.286;9.900;2022-10-16T15:09:41;21.75;;;18.27;;
47804;SDS011;33568;45.286;9.900;2022-10-16T15:12:08;26.90;;;18.52;;
47804;SDS011;33568;45.286;9.900;2022-10-16T15:14:34;18.63;;;14.77;;
47804;SDS011;33568;45.286;9.900;2022-10-16T15:17:01;26.02;;;18.00;;
47804;SDS011;33568;45.286;9.900;2022-10-16T15:19:28;22.40;;;15.43;;
47804;SDS011;33568;45.286;9.900;2022-10-16T15:21:54;27.10;;;17.20;;
47804;SDS011;33568;45.286;9.900;2022-10-16T15:24:21;28.48;;;17.33;;
47804;SDS011;33568;45.286;9.900;2022-10-16T15:26:48;34.95;;;20.02;;
47804;SDS011;33568;45.286;9.900;2022-10-16T15:29:15;26.35;;;20.52;;
47804;SDS011;33568;45.286;9.900;2022-10-16T15:31:42;22.73;;;19.02;;
47804;SDS011;33568;45.286;9.900;2022-10-16T15:34:09;37.72;;;22.23;;
47804;SDS011;33568;45.286;9.900;2022-10-16T15:36:36;27.63;;;19.77;;
47804;SDS011;33568;45.286;9.900;2022-10-16T15:39:04;37.20;;;23.38;;
47804;SDS011;33568;45.286;9.900;2022-10-16T15:41:36;34.22;;;22.40;;
47804;SDS011;33568;45.286;9.900;2022-10-16T15:44:03;44.00;;;25.02;;
47804;SDS011;33568;45.286;9.900;2022-10-16T15:46:29;40.38;;;23.20;;
47804;SDS011;33568;45.286;9.900;2022-10-16T15:48:57;34.75;;;22.13;;
47804;SDS011;33568;45.286;9.900;2022-10-16T15:51:24;26.13;;;20.70;;
47804;SDS011;33568;45.286;9.900;2022-10-16T15:53:57;27.08;;;20.70;;
47804;SDS011;33568;45.286;9.900;2022-10-16T15:56:27;39.80;;;22.10;;
47804;SDS011;33568;45.286;9.900;2022-10-16T15:58:54;31.27;;;21.85;;
47804;SDS011;33568;45.286;9.900;2022-10-16T16:01:21;30.17;;;20.83;;
47804;SDS011;33568;45.286;9.900;2022-10-16T16:03:47;26.48;;;20.98;;
47804;SDS011;33568;45.286;9.900;2022-10-16T16:06:18;23.92;;;19.48;;
47804;SDS011;33568;45.286;9.900;2022-10-16T16:08:44;27.77;;;19.52;;
47804;SDS011;33568;45.286;9.900;2022-10-16T16:11:11;22.52;;;18.88;;
47804;SDS011;33568;45.286;9.900;2022-10-16T16:13:39;36.45;;;23.45;;
47804;SDS011;33568;45.286;9.900;2022-10-16T16:16:07;30.20;;;23.55;;
47804;SDS011;33568;45.286;9.900;2022-10-16T16:18:34;28.20;;;21.88;;
47804;SDS011;33568;45.286;9.900;2022-10-16T16:21:01;24.88;;;17.75;;
47804;SDS011;33568;45.286;9.900;2022-10-16T16:23:28;27.45;;;19.10;;
47804;SDS011;33568;45.286;9.900;2022-10-16T16:26:05;29.15;;;18.17;;
47804;SDS011;33568;45.286;9.900;2022-10-16T16:28:35;32.97;;;18.35;;
47804;SDS011;33568;45.286;9.900;2022-10-16T16:31:02;21.63;;;15.55;;
47804;SDS011;33568;45.286;9.900;2022-10-16T16:33:29;25.48;;;18.23;;
47804;SDS011;33568;45.286;9.900;2022-10-16T16:35:57;24.92;;;15.82;;
47804;SDS011;33568;45.286;9.900;2022-10-16T16:38:24;26.65;;;15.18;;
47804;SDS011;33568;45.286;9.900;2022-10-16T16:40:51;27.23;;;16.90;;
47804;SDS011;33568;45.286;9.900;2022-10-16T16:43:18;28.17;;;18.00;;
47804;SDS011;33568;45.286;9.900;2022-10-16T16:45:45;27.02;;;15.98;;
47804;SDS011;33568;45.286;9.900;2022-10-16T16:48:11;23.38;;;18.17;;
47804;SDS011;33568;45.286;9.900;2022-10-16T16:50:37;30.48;;;17.80;;
47804;SDS011;33568;45.286;9.900;2022-10-16T16:53:04;31.45;;;18.08;;
47804;SDS011;33568;45.286;9.900;2022-10-16T16:55:30;29.45;;;16.52;;
47804;SDS011;33568;45.286;9.900;2022-10-16T16:57:58;27.73;;;18.77;;
47804;SDS011;33568;45.286;9.900;2022-10-16T17:00:25;31.45;;;19.23;;
47804;SDS011;33568;45.286;9.900;2022-10-16T17:02:52;24.88;;;15.25;;
47804;SDS011;33568;45.286;9.900;2022-10-16T17:05:18;32.45;;;19.60;;
47804;SDS011;33568;45.286;9.900;2022-10-16T17:07:44;35.28;;;20.10;;
47804;SDS011;33568;45.286;9.900;2022-10-16T17:10:11;33.95;;;19.45;;
47804;SDS011;33568;45.286;9.900;2022-10-16T17:12:37;43.53;;;21.17;;
47804;SDS011;33568;45.286;9.900;2022-10-16T17:15:04;37.70;;;21.02;;
47804;SDS011;33568;45.286;9.900;2022-10-16T17:17:30;32.25;;;20.67;;
47804;SDS011;33568;45.286;9.900;2022-10-16T17:19:57;29.38;;;20.27;;
47804;SDS011;33568;45.286;9.900;2022-10-16T17:22:23;41.60;;;21.35;;
47804;SDS011;33568;45.286;9.900;2022-10-16T17:24:50;32.47;;;20.67;;
47804;SDS011;33568;45.286;9.900;2022-10-16T17:27:17;43.92;;;20.98;;
47804;SDS011;33568;45.286;9.900;2022-10-16T17:29:44;36.22;;;19.00;;
47804;SDS011;33568;45.286;9.900;2022-10-16T17:32:10;37.00;;;20.70;;
47804;SDS011;33568;45.286;9.900;2022-10-16T17:34:37;30.50;;;18.27;;
47804;SDS011;33568;45.286;9.900;2022-10-16T17:37:03;29.92;;;19.30;;
47804;SDS011;33568;45.286;9.900;2022-10-16T17:39:30;32.80;;;19.85;;